createdAt,value
2018-07-12T00:00:33.151Z,22.07
2018-07-12T00:01:13.694Z,22.06
2018-07-12T00:01:54.200Z,22.03
2018-07-12T00:02:34.721Z,22.06
2018-07-12T00:03:15.237Z,22.05
2018-07-12T00:03:55.764Z,22.06
2018-07-12T00:04:36.286Z,22.09
2018-07-12T00:05:16.800Z,22
2018-07-12T00:05:57.343Z,22
2018-07-12T00:06:37.860Z,21.91
2018-07-12T00:07:18.411Z,22.02
2018-07-12T00:07:58.938Z,21.94
2018-07-12T00:08:39.448Z,21.92
2018-07-12T00:09:19.984Z,21.98
2018-07-12T00:10:00.502Z,22.03
2018-07-12T00:10:41.023Z,21.98
2018-07-12T00:11:21.546Z,21.99
2018-07-12T00:12:02.064Z,21.98
2018-07-12T00:12:42.599Z,21.91
2018-07-12T00:13:23.128Z,21.98
2018-07-12T00:14:03.648Z,21.91
2018-07-12T00:14:44.165Z,21.9
2018-07-12T00:15:24.690Z,21.68
2018-07-12T00:16:05.217Z,21.83
2018-07-12T00:16:45.733Z,21.82
2018-07-12T00:17:26.262Z,21.71
2018-07-12T00:18:06.795Z,21.84
2018-07-12T00:18:47.326Z,21.86
2018-07-12T00:19:27.850Z,21.98
2018-07-12T00:20:08.383Z,21.96
2018-07-12T00:20:48.894Z,21.94
2018-07-12T00:21:29.432Z,21.99
2018-07-12T00:22:09.947Z,22.06
2018-07-12T00:22:50.465Z,22.06
2018-07-12T00:23:30.986Z,22.02
2018-07-12T00:24:11.494Z,22.1
2018-07-12T00:24:52.025Z,22.15
2018-07-12T00:25:32.549Z,22.18
2018-07-12T00:26:13.082Z,22.2
2018-07-12T00:26:53.611Z,22.2
2018-07-12T00:27:34.132Z,22.22
2018-07-12T00:28:14.638Z,22.35
2018-07-12T00:28:55.165Z,22.24
2018-07-12T00:29:35.705Z,22.3
2018-07-12T00:30:16.221Z,22.3
2018-07-12T00:30:56.748Z,22.21
2018-07-12T00:31:37.259Z,22.2
2018-07-12T00:32:17.777Z,22.22
2018-07-12T00:32:58.290Z,22.2
2018-07-12T00:33:38.841Z,22.15
2018-07-12T00:34:19.336Z,22.18
2018-07-12T00:34:59.858Z,22.1
2018-07-12T00:35:40.384Z,22.17
2018-07-12T00:36:20.892Z,22.17
2018-07-12T00:37:01.406Z,22.1
2018-07-12T00:37:41.920Z,22.14
2018-07-12T00:38:22.442Z,22.15
2018-07-12T00:39:02.960Z,22.06
2018-07-12T00:39:43.491Z,22.06
2018-07-12T00:40:24.023Z,22.06
2018-07-12T00:41:04.538Z,22.06
2018-07-12T00:41:45.063Z,22.14
2018-07-12T00:42:25.581Z,22.06
2018-07-12T00:43:06.105Z,22.03
2018-07-12T00:43:46.633Z,22.06
2018-07-12T00:44:27.161Z,22.07
2018-07-12T00:45:07.690Z,22.15
2018-07-12T00:45:48.198Z,22.15
2018-07-12T00:46:28.730Z,22.1
2018-07-12T00:47:09.250Z,22.06
2018-07-12T00:47:49.777Z,22.14
2018-07-12T00:48:30.293Z,22.15
2018-07-12T00:49:10.817Z,22.02
2018-07-12T00:49:51.351Z,22.05
2018-07-12T00:50:31.855Z,22
2018-07-12T00:51:12.393Z,21.99
2018-07-12T00:51:52.930Z,22.02
2018-07-12T00:52:33.457Z,22.1
2018-07-12T00:53:13.987Z,22.12
2018-07-12T00:53:54.504Z,22.12
2018-07-12T00:54:35.022Z,22.09
2018-07-12T00:55:15.585Z,22.12
2018-07-12T00:55:56.095Z,22.2
2018-07-12T00:56:36.628Z,22.09
2018-07-12T00:57:17.162Z,22.1
2018-07-12T00:57:57.689Z,22.1
2018-07-12T00:58:38.198Z,22.05
2018-07-12T00:59:18.722Z,22.14
2018-07-12T00:59:59.253Z,22.15
2018-07-12T01:00:39.758Z,22.02
2018-07-12T01:01:20.292Z,22.05
2018-07-12T01:02:00.799Z,22.05
2018-07-12T01:02:41.331Z,21.98
2018-07-12T01:03:21.848Z,22.03
2018-07-12T01:04:02.370Z,22.03
2018-07-12T01:04:42.896Z,21.96
2018-07-12T01:05:23.425Z,22
2018-07-12T01:06:03.944Z,22.02
2018-07-12T01:06:44.461Z,22.02
2018-07-12T01:07:24.984Z,22.05
2018-07-12T01:08:05.504Z,22.05
2018-07-12T01:08:46.040Z,22.05
2018-07-12T01:09:26.554Z,21.99
2018-07-12T01:10:07.070Z,22.02
2018-07-12T01:10:47.593Z,22.06
2018-07-12T01:11:28.105Z,22.02
2018-07-12T01:12:08.644Z,21.99
2018-07-12T01:12:49.171Z,21.99
2018-07-12T01:13:29.688Z,22
2018-07-12T01:14:10.210Z,22.03
2018-07-12T01:14:50.730Z,21.96
2018-07-12T01:15:31.262Z,22.05
2018-07-12T01:16:11.793Z,21.98
2018-07-12T01:16:52.317Z,21.94
2018-07-12T01:17:32.835Z,22
2018-07-12T01:18:13.367Z,22.03
2018-07-12T01:18:53.888Z,22.07
2018-07-12T01:19:34.401Z,22.1
2018-07-12T01:20:14.940Z,22.09
2018-07-12T01:20:55.461Z,22
2018-07-12T01:21:35.989Z,22.02
2018-07-12T01:22:16.503Z,22.07
2018-07-12T01:22:57.033Z,22.03
2018-07-12T01:23:37.559Z,21.96
2018-07-12T01:24:18.073Z,21.98
2018-07-12T01:24:58.623Z,21.99
2018-07-12T01:25:39.139Z,22.03
2018-07-12T01:26:19.656Z,22.05
2018-07-12T01:27:00.185Z,22
2018-07-12T01:27:40.710Z,21.98
2018-07-12T01:28:21.232Z,22.02
2018-07-12T01:29:01.752Z,21.99
2018-07-12T01:29:42.284Z,21.88
2018-07-12T01:30:22.790Z,21.91
2018-07-12T01:31:03.306Z,21.94
2018-07-12T01:31:43.825Z,21.88
2018-07-12T01:32:24.345Z,21.91
2018-07-12T01:33:04.868Z,21.99
2018-07-12T01:33:45.392Z,21.98
2018-07-12T01:34:25.905Z,21.99
2018-07-12T01:35:06.434Z,21.96
2018-07-12T01:35:46.963Z,21.96
2018-07-12T01:36:27.494Z,21.99
2018-07-12T01:37:08.004Z,21.98
2018-07-12T01:37:48.531Z,21.96
2018-07-12T01:38:29.067Z,21.96
2018-07-12T01:39:09.598Z,21.86
2018-07-12T01:39:50.107Z,22.02
2018-07-12T01:40:30.639Z,21.99
2018-07-12T01:41:11.165Z,21.94
2018-07-12T01:41:51.682Z,22.1
2018-07-12T01:42:32.188Z,21.96
2018-07-12T01:43:12.742Z,21.94
2018-07-12T01:43:53.265Z,21.84
2018-07-12T01:44:33.783Z,21.79
2018-07-12T01:45:14.296Z,21.86
2018-07-12T01:45:54.811Z,21.77
2018-07-12T01:46:35.327Z,21.82
2018-07-12T01:47:15.852Z,21.82
2018-07-12T01:47:56.383Z,21.82
2018-07-12T01:48:36.901Z,21.88
2018-07-12T01:49:17.444Z,21.98
2018-07-12T01:49:57.953Z,21.82
2018-07-12T01:50:38.470Z,21.83
2018-07-12T01:51:18.988Z,21.84
2018-07-12T01:51:59.511Z,21.86
2018-07-12T01:52:40.037Z,21.91
2018-07-12T01:53:20.561Z,21.92
2018-07-12T01:54:01.072Z,21.84
2018-07-12T01:54:41.596Z,21.79
2018-07-12T01:55:22.102Z,21.82
2018-07-12T01:56:02.632Z,21.83
2018-07-12T01:56:43.157Z,21.79
2018-07-12T01:57:23.691Z,21.77
2018-07-12T01:58:04.216Z,21.84
2018-07-12T01:58:44.724Z,21.9
2018-07-12T01:59:25.251Z,21.79
2018-07-12T02:00:05.787Z,21.75
2018-07-12T02:00:46.317Z,21.64
2018-07-12T02:01:26.853Z,21.62
2018-07-12T02:02:07.403Z,21.59
2018-07-12T02:02:47.925Z,21.75
2018-07-12T02:03:28.455Z,21.83
2018-07-12T02:04:08.975Z,21.79
2018-07-12T02:04:49.494Z,21.8
2018-07-12T02:05:30.027Z,21.83
2018-07-12T02:06:10.540Z,21.8
2018-07-12T02:06:51.064Z,21.69
2018-07-12T02:07:31.579Z,21.59
2018-07-12T02:08:12.116Z,21.67
2018-07-12T02:08:52.638Z,21.74
2018-07-12T02:09:33.180Z,21.74
2018-07-12T02:10:13.704Z,21.56
2018-07-12T02:10:54.246Z,21.46
2018-07-12T02:11:34.762Z,21.5
2018-07-12T02:12:15.271Z,21.43
2018-07-12T02:12:55.778Z,21.44
2018-07-12T02:13:36.309Z,21.53
2018-07-12T02:14:16.833Z,21.59
2018-07-12T02:14:57.362Z,21.61
2018-07-12T02:15:37.890Z,21.58
2018-07-12T02:16:18.418Z,21.59
2018-07-12T02:16:59.026Z,21.68
2018-07-12T02:17:39.458Z,21.74
2018-07-12T02:18:19.978Z,21.77
2018-07-12T02:19:00.505Z,21.86
2018-07-12T02:19:41.041Z,21.79
2018-07-12T02:20:21.563Z,21.69
2018-07-12T02:21:02.102Z,21.79
2018-07-12T02:21:42.613Z,21.72
2018-07-12T02:22:23.133Z,21.71
2018-07-12T02:23:03.662Z,21.82
2018-07-12T02:23:44.196Z,21.72
2018-07-12T02:24:24.714Z,21.65
2018-07-12T02:25:05.230Z,21.68
2018-07-12T02:25:45.779Z,21.69
2018-07-12T02:26:26.317Z,21.69
2018-07-12T02:27:06.843Z,21.67
2018-07-12T02:27:47.366Z,21.71
2018-07-12T02:28:27.879Z,21.65
2018-07-12T02:29:08.408Z,21.67
2018-07-12T02:29:48.946Z,21.61
2018-07-12T02:30:29.485Z,21.56
2018-07-12T02:31:10.016Z,21.61
2018-07-12T02:31:50.542Z,21.5
2018-07-12T02:32:31.094Z,21.61
2018-07-12T02:33:11.609Z,21.61
2018-07-12T02:33:52.124Z,21.49
2018-07-12T02:34:32.660Z,21.49
2018-07-12T02:35:13.253Z,21.49
2018-07-12T02:35:53.720Z,21.53
2018-07-12T02:36:34.252Z,21.43
2018-07-12T02:37:14.760Z,21.46
2018-07-12T02:37:55.285Z,21.49
2018-07-12T02:38:35.813Z,21.5
2018-07-12T02:39:16.324Z,21.46
2018-07-12T02:39:56.860Z,21.5
2018-07-12T02:40:37.377Z,21.43
2018-07-12T02:41:17.897Z,21.54
2018-07-12T02:41:58.416Z,21.35
2018-07-12T02:42:39.010Z,21.42
2018-07-12T02:43:19.495Z,21.46
2018-07-12T02:44:00.002Z,21.42
2018-07-12T02:44:40.515Z,21.27
2018-07-12T02:45:21.042Z,21.31
2018-07-12T02:46:01.563Z,21.34
2018-07-12T02:46:42.114Z,21.24
2018-07-12T02:47:22.639Z,21.21
2018-07-12T02:48:03.162Z,21.17
2018-07-12T02:48:43.680Z,21.14
2018-07-12T02:49:24.218Z,21.12
2018-07-12T02:50:04.737Z,21.17
2018-07-12T02:50:45.272Z,21.13
2018-07-12T02:51:25.797Z,21.07
2018-07-12T02:52:06.347Z,21.16
2018-07-12T02:52:46.931Z,21.1
2018-07-12T02:53:27.542Z,21.19
2018-07-12T02:54:08.060Z,21.29
2018-07-12T02:54:48.585Z,21.28
2018-07-12T02:55:29.120Z,21.27
2018-07-12T02:56:09.643Z,21.24
2018-07-12T02:56:50.155Z,21.31
2018-07-12T02:57:30.682Z,21.31
2018-07-12T02:58:11.201Z,21.24
2018-07-12T02:58:51.783Z,21.34
2018-07-12T02:59:32.310Z,21.34
2018-07-12T03:00:12.834Z,21.37
2018-07-12T03:00:53.385Z,21.34
2018-07-12T03:01:33.916Z,21.34
2018-07-12T03:02:14.437Z,21.29
2018-07-12T03:02:54.972Z,21.27
2018-07-12T03:03:35.497Z,21.29
2018-07-12T03:04:16.022Z,21.34
2018-07-12T03:04:56.553Z,21.38
2018-07-12T03:05:37.059Z,21.42
2018-07-12T03:06:17.609Z,21.42
2018-07-12T03:06:58.144Z,21.58
2018-07-12T03:07:38.674Z,21.47
2018-07-12T03:08:19.191Z,21.43
2018-07-12T03:08:59.703Z,21.31
2018-07-12T03:09:40.218Z,21.28
2018-07-12T03:10:20.734Z,21.34
2018-07-12T03:11:01.264Z,21.37
2018-07-12T03:11:41.787Z,21.42
2018-07-12T03:12:22.310Z,21.32
2018-07-12T03:13:02.830Z,21.29
2018-07-12T03:13:43.358Z,21.35
2018-07-12T03:14:23.880Z,21.35
2018-07-12T03:15:04.398Z,21.34
2018-07-12T03:15:44.922Z,21.44
2018-07-12T03:16:25.452Z,21.47
2018-07-12T03:17:05.985Z,21.43
2018-07-12T03:17:46.512Z,21.4
2018-07-12T03:18:27.046Z,21.5
2018-07-12T03:19:07.656Z,21.53
2018-07-12T03:19:48.166Z,21.44
2018-07-12T03:20:28.715Z,21.5
2018-07-12T03:21:09.306Z,21.4
2018-07-12T03:21:49.746Z,21.44
2018-07-12T03:22:30.280Z,21.49
2018-07-12T03:23:10.811Z,21.49
2018-07-12T03:23:51.336Z,21.43
2018-07-12T03:24:31.860Z,21.34
2018-07-12T03:25:13.129Z,21.34
2018-07-12T03:25:53.126Z,21.25
2018-07-12T03:26:33.654Z,21.29
2018-07-12T03:27:14.166Z,21.29
2018-07-12T03:27:54.708Z,21.22
2018-07-12T03:28:35.205Z,21.34
2018-07-12T03:29:15.743Z,21.24
2018-07-12T03:29:56.261Z,21.27
2018-07-12T03:30:36.781Z,21.16
2018-07-12T03:31:17.318Z,21.17
2018-07-12T03:31:57.816Z,21.19
2018-07-12T03:32:38.342Z,21.21
2018-07-12T03:33:18.874Z,21.16
2018-07-12T03:33:59.396Z,21.16
2018-07-12T03:34:39.923Z,21.14
2018-07-12T03:35:20.446Z,21.16
2018-07-12T03:36:00.975Z,21.19
2018-07-12T03:36:41.496Z,21.09
2018-07-12T03:37:22.017Z,21.07
2018-07-12T03:38:02.556Z,21.16
2018-07-12T03:38:43.081Z,21.09
2018-07-12T03:39:23.613Z,21.19
2018-07-12T03:40:04.165Z,21.13
2018-07-12T03:40:44.679Z,21.16
2018-07-12T03:41:25.218Z,21.1
2018-07-12T03:42:05.733Z,21.24
2018-07-12T03:42:46.261Z,21.29
2018-07-12T03:43:26.787Z,21.31
2018-07-12T03:44:07.303Z,21.28
2018-07-12T03:44:47.832Z,21.31
2018-07-12T03:45:28.350Z,21.31
2018-07-12T03:46:08.872Z,21.29
2018-07-12T03:46:49.400Z,21.32
2018-07-12T03:47:29.956Z,21.32
2018-07-12T03:48:10.470Z,21.37
2018-07-12T03:48:50.994Z,21.29
2018-07-12T03:49:31.524Z,21.34
2018-07-12T03:50:12.066Z,21.46
2018-07-12T03:50:52.578Z,21.35
2018-07-12T03:51:33.104Z,21.29
2018-07-12T03:52:13.639Z,21.31
2018-07-12T03:52:54.168Z,21.29
2018-07-12T03:53:34.689Z,21.28
2018-07-12T03:54:15.210Z,21.31
2018-07-12T03:54:55.722Z,21.38
2018-07-12T03:55:36.250Z,21.32
2018-07-12T03:56:16.801Z,21.37
2018-07-12T03:56:57.327Z,21.34
2018-07-12T03:57:37.845Z,21.32
2018-07-12T03:58:18.366Z,21.42
2018-07-12T03:58:58.885Z,21.34
2018-07-12T03:59:39.417Z,21.42
2018-07-12T04:00:19.947Z,21.31
2018-07-12T04:01:00.536Z,21.37
2018-07-12T04:01:40.998Z,21.31
2018-07-12T04:02:21.520Z,21.4
2018-07-12T04:03:02.051Z,21.29
2018-07-12T04:03:42.701Z,21.38
2018-07-12T04:04:23.095Z,21.46
2018-07-12T04:05:03.621Z,21.43
2018-07-12T04:05:44.132Z,21.34
2018-07-12T04:06:24.653Z,21.46
2018-07-12T04:07:05.196Z,21.29
2018-07-12T04:07:45.706Z,21.35
2018-07-12T04:08:26.235Z,21.34
2018-07-12T04:09:06.757Z,21.27
2018-07-12T04:09:47.279Z,21.28
2018-07-12T04:10:27.809Z,21.37
2018-07-12T04:11:08.294Z,21.37
2018-07-12T04:11:48.812Z,21.42
2018-07-12T04:12:29.343Z,21.49
2018-07-12T04:13:09.878Z,21.43
2018-07-12T04:13:50.392Z,21.43
2018-07-12T04:14:30.927Z,21.46
2018-07-12T04:15:11.461Z,21.25
2018-07-12T04:15:51.998Z,21.25
2018-07-12T04:16:32.517Z,21.28
2018-07-12T04:17:13.045Z,21.28
2018-07-12T04:17:53.571Z,21.29
2018-07-12T04:18:34.104Z,21.27
2018-07-12T04:19:14.618Z,21.25
2018-07-12T04:19:55.142Z,21.32
2018-07-12T04:20:35.665Z,21.32
2018-07-12T04:21:16.193Z,21.38
2018-07-12T04:21:56.723Z,21.42
2018-07-12T04:22:37.239Z,21.43
2018-07-12T04:23:17.770Z,21.46
2018-07-12T04:23:58.286Z,21.42
2018-07-12T04:24:38.810Z,21.35
2018-07-12T04:25:19.347Z,21.34
2018-07-12T04:25:59.864Z,21.24
2018-07-12T04:26:40.380Z,21.29
2018-07-12T04:27:20.896Z,21.44
2018-07-12T04:28:01.427Z,21.34
2018-07-12T04:28:41.966Z,21.46
2018-07-12T04:29:22.485Z,21.49
2018-07-12T04:30:03.032Z,21.28
2018-07-12T04:30:43.569Z,21.32
2018-07-12T04:31:24.092Z,21.32
2018-07-12T04:32:04.617Z,21.31
2018-07-12T04:32:45.351Z,21.29
2018-07-12T04:33:25.963Z,21.28
2018-07-12T04:34:06.449Z,21.28
2018-07-12T04:34:47.034Z,21.22
2018-07-12T04:35:27.501Z,21.22
2018-07-12T04:36:08.026Z,21.19
2018-07-12T04:36:48.561Z,21.22
2018-07-12T04:37:29.086Z,21.21
2018-07-12T04:38:09.626Z,21.19
2018-07-12T04:38:50.144Z,21.16
2018-07-12T04:39:30.663Z,21.14
2018-07-12T04:40:11.246Z,21.16
2018-07-12T04:40:51.719Z,21.21
2018-07-12T04:41:32.253Z,21.07
2018-07-12T04:42:12.798Z,21.07
2018-07-12T04:42:53.321Z,21.06
2018-07-12T04:43:33.849Z,21.12
2018-07-12T04:44:14.371Z,21.12
2018-07-12T04:44:54.898Z,21.07
2018-07-12T04:45:35.402Z,21.17
2018-07-12T04:46:15.934Z,21.16
2018-07-12T04:46:56.446Z,21.12
2018-07-12T04:47:36.976Z,21.12
2018-07-12T04:48:17.497Z,21.27
2018-07-12T04:48:58.025Z,21.14
2018-07-12T04:49:38.552Z,21.17
2018-07-12T04:50:19.099Z,21.17
2018-07-12T04:50:59.633Z,21.12
2018-07-12T04:51:40.161Z,21.13
2018-07-12T04:52:20.689Z,21.19
2018-07-12T04:53:01.228Z,21.27
2018-07-12T04:53:41.749Z,21.34
2018-07-12T04:54:22.260Z,21.27
2018-07-12T04:55:02.782Z,21.29
2018-07-12T04:55:43.311Z,21.27
2018-07-12T04:56:23.826Z,21.29
2018-07-12T04:57:04.375Z,21.28
2018-07-12T04:57:44.908Z,21.37
2018-07-12T04:58:25.455Z,21.42
2018-07-12T04:59:05.969Z,21.43
2018-07-12T04:59:46.500Z,21.47
2018-07-12T05:00:27.038Z,21.47
2018-07-12T05:01:07.547Z,21.56
2018-07-12T05:01:48.771Z,21.62
2018-07-12T05:02:29.304Z,21.62
2018-07-12T05:03:09.833Z,21.64
2018-07-12T05:03:50.348Z,21.5
2018-07-12T05:04:30.916Z,21.43
2018-07-12T05:05:11.446Z,21.42
2018-07-12T05:05:51.971Z,21.5
2018-07-12T05:06:32.507Z,21.58
2018-07-12T05:07:13.008Z,21.49
2018-07-12T05:07:53.544Z,21.64
2018-07-12T05:08:34.060Z,21.52
2018-07-12T05:09:14.578Z,21.47
2018-07-12T05:09:55.124Z,21.31
2018-07-12T05:10:35.655Z,21.42
2018-07-12T05:11:16.177Z,21.31
2018-07-12T05:11:56.689Z,21.37
2018-07-12T05:12:37.231Z,21.38
2018-07-12T05:13:17.726Z,21.38
2018-07-12T05:13:58.255Z,21.43
2018-07-12T05:14:44.252Z,21.44
2018-07-12T05:15:37.631Z,21.47
2018-07-12T05:16:41.635Z,21.59
2018-07-12T05:17:25.405Z,21.67
2018-07-12T05:18:08.411Z,21.61
2018-07-12T05:19:14.751Z,21.72
2018-07-12T05:20:20.123Z,21.64
2018-07-12T05:21:00.659Z,21.75
2018-07-12T05:21:41.169Z,21.83
2018-07-12T05:22:21.693Z,21.79
2018-07-12T05:23:02.201Z,21.83
2018-07-12T05:23:42.685Z,21.79
2018-07-12T05:24:23.227Z,21.88
2018-07-12T05:25:03.764Z,21.88
2018-07-12T05:25:44.278Z,21.9
2018-07-12T05:26:24.806Z,21.96
2018-07-12T05:27:05.320Z,21.99
2018-07-12T05:27:45.851Z,22
2018-07-12T05:28:26.380Z,22.05
2018-07-12T05:29:06.903Z,22.06
2018-07-12T05:29:47.419Z,22.03
2018-07-12T05:30:27.970Z,22.05
2018-07-12T05:31:08.480Z,22.1
2018-07-12T05:31:49.016Z,21.98
2018-07-12T05:32:29.537Z,21.99
2018-07-12T05:33:10.051Z,21.99
2018-07-12T05:33:50.571Z,21.98
2018-07-12T05:34:31.100Z,21.98
2018-07-12T05:35:11.633Z,21.92
2018-07-12T05:35:52.166Z,21.91
2018-07-12T05:36:32.661Z,21.99
2018-07-12T05:37:13.179Z,21.94
2018-07-12T05:37:53.700Z,21.99
2018-07-12T05:38:34.217Z,22.03
2018-07-12T05:39:14.771Z,22.02
2018-07-12T05:39:55.258Z,21.94
2018-07-12T05:40:35.783Z,21.96
2018-07-12T05:41:16.307Z,21.99
2018-07-12T05:41:56.833Z,22.06
2018-07-12T05:42:37.709Z,22.07
2018-07-12T05:43:18.199Z,21.98
2018-07-12T05:43:58.732Z,22.12
2018-07-12T05:44:39.260Z,22.2
2018-07-12T05:45:19.769Z,22.25
2018-07-12T05:46:00.294Z,22.17
2018-07-12T05:46:40.855Z,22.18
2018-07-12T05:47:21.361Z,22.15
2018-07-12T05:48:01.879Z,22.1
2018-07-12T05:48:42.401Z,21.96
2018-07-12T05:49:22.925Z,21.99
2018-07-12T05:50:03.456Z,21.94
2018-07-12T05:50:43.975Z,21.74
2018-07-12T05:51:24.449Z,21.92
2018-07-12T05:52:04.975Z,21.91
2018-07-12T05:52:45.515Z,21.96
2018-07-12T05:53:26.074Z,22
2018-07-12T05:54:06.595Z,21.94
2018-07-12T05:54:47.102Z,21.92
2018-07-12T05:55:27.623Z,21.96
2018-07-12T05:56:08.143Z,21.94
2018-07-12T05:56:48.664Z,22.02
2018-07-12T05:57:29.240Z,22.06
2018-07-12T05:58:09.723Z,22.03
2018-07-12T05:58:50.266Z,22.1
2018-07-12T05:59:30.807Z,22.1
2018-07-12T06:00:11.312Z,22.15
2018-07-12T06:00:51.827Z,22.24
2018-07-12T06:01:32.418Z,22.17
2018-07-12T06:02:12.894Z,22.14
2018-07-12T06:02:53.499Z,22.14
2018-07-12T06:03:33.944Z,22.03
2018-07-12T06:04:14.489Z,21.96
2018-07-12T06:04:54.987Z,22
2018-07-12T06:05:35.537Z,22.14
2018-07-12T06:06:16.064Z,22.14
2018-07-12T06:06:56.588Z,22.06
2018-07-12T06:07:37.121Z,21.98
2018-07-12T06:08:17.663Z,22.02
2018-07-12T06:08:58.196Z,22.05
2018-07-12T06:09:38.719Z,22.18
2018-07-12T06:10:19.243Z,22.33
2018-07-12T06:10:59.752Z,22.15
2018-07-12T06:11:40.287Z,22.3
2018-07-12T06:12:20.806Z,22.27
2018-07-12T06:13:01.342Z,22.35
2018-07-12T06:13:41.863Z,22.25
2018-07-12T06:14:22.388Z,22.4
2018-07-12T06:15:02.907Z,22.46
2018-07-12T06:15:43.432Z,22.33
2018-07-12T06:16:23.961Z,22.39
2018-07-12T06:17:04.498Z,22.45
2018-07-12T06:17:45.007Z,22.31
2018-07-12T06:18:25.547Z,22.31
2018-07-12T06:19:06.101Z,22.4
2018-07-12T06:19:46.572Z,22.58
2018-07-12T06:20:27.106Z,22.58
2018-07-12T06:21:07.600Z,22.7
2018-07-12T06:21:48.099Z,22.7
2018-07-12T06:22:28.640Z,22.73
2018-07-12T06:23:09.161Z,22.65
2018-07-12T06:23:49.685Z,22.65
2018-07-12T06:24:30.211Z,22.75
2018-07-12T06:25:10.768Z,22.7
2018-07-12T06:25:51.306Z,22.77
2018-07-12T06:26:31.830Z,22.91
2018-07-12T06:27:12.335Z,22.79
2018-07-12T06:27:52.828Z,22.86
2018-07-12T06:28:33.333Z,22.9
2018-07-12T06:29:13.820Z,22.76
2018-07-12T06:29:54.411Z,22.79
2018-07-12T06:30:34.884Z,22.82
2018-07-12T06:31:22.269Z,22.79
2018-07-12T06:32:02.789Z,22.83
2018-07-12T06:32:43.312Z,22.85
2018-07-12T06:33:23.823Z,22.82
2018-07-12T06:34:11.154Z,22.83
2018-07-12T06:34:51.694Z,22.77
2018-07-12T06:35:32.218Z,22.73
2018-07-12T06:36:12.728Z,22.58
2018-07-12T06:36:53.253Z,22.61
2018-07-12T06:37:33.750Z,22.62
2018-07-12T06:38:14.276Z,22.54
2018-07-12T06:38:54.798Z,22.55
2018-07-12T06:39:35.351Z,22.57
2018-07-12T06:40:15.859Z,22.58
2018-07-12T06:40:56.376Z,22.54
2018-07-12T06:41:36.899Z,22.7
2018-07-12T06:42:17.426Z,22.68
2018-07-12T06:42:57.942Z,22.73
2018-07-12T06:43:38.479Z,22.72
2018-07-12T06:44:19.007Z,22.7
2018-07-12T06:44:59.546Z,22.67
2018-07-12T06:45:40.059Z,22.64
2018-07-12T06:46:20.602Z,22.65
2018-07-12T06:47:01.151Z,22.65
2018-07-12T06:47:41.612Z,22.6
2018-07-12T06:48:22.113Z,22.57
2018-07-12T06:49:02.636Z,22.57
2018-07-12T06:49:43.168Z,22.6
2018-07-12T06:50:23.629Z,22.52
2018-07-12T06:51:04.163Z,22.58
2018-07-12T06:51:44.655Z,22.57
2018-07-12T06:52:25.178Z,22.73
2018-07-12T06:53:05.655Z,22.83
2018-07-12T06:53:46.157Z,22.83
2018-07-12T06:54:26.662Z,22.85
2018-07-12T06:55:07.165Z,22.68
2018-07-12T06:55:47.624Z,22.64
2018-07-12T06:56:28.170Z,22.7
2018-07-12T06:57:08.679Z,22.72
2018-07-12T06:57:49.190Z,22.57
2018-07-12T06:58:29.658Z,22.68
2018-07-12T06:59:10.208Z,22.75
2018-07-12T06:59:52.644Z,22.76
2018-07-12T07:00:33.247Z,22.86
2018-07-12T07:01:13.738Z,23
2018-07-12T07:01:54.286Z,23.09
2018-07-12T07:02:34.815Z,23.02
2018-07-12T07:03:15.357Z,23.01
2018-07-12T07:03:55.885Z,23.13
2018-07-12T07:04:36.413Z,23.15
2018-07-12T07:05:16.947Z,23.07
2018-07-12T07:05:57.535Z,23.17
2018-07-12T07:06:38.006Z,23.12
2018-07-12T07:07:18.526Z,23.19
2018-07-12T07:07:59.054Z,23.16
2018-07-12T07:08:39.567Z,23.23
2018-07-12T07:09:20.097Z,23.2
2018-07-12T07:10:00.650Z,23.17
2018-07-12T07:10:41.171Z,23.23
2018-07-12T07:11:21.692Z,23.22
2018-07-12T07:12:02.178Z,23.25
2018-07-12T07:12:42.648Z,23.22
2018-07-12T07:13:23.139Z,23.31
2018-07-12T07:14:03.630Z,23.22
2018-07-12T07:14:44.223Z,23.42
2018-07-12T07:15:24.664Z,23.38
2018-07-12T07:16:05.207Z,23.38
2018-07-12T07:16:45.709Z,23.38
2018-07-12T07:17:26.192Z,23.46
2018-07-12T07:18:06.709Z,23.36
2018-07-12T07:18:47.246Z,23.4
2018-07-12T07:19:27.712Z,23.46
2018-07-12T07:20:08.230Z,23.48
2018-07-12T07:20:48.644Z,23.57
2018-07-12T07:21:29.158Z,23.58
2018-07-12T07:22:09.627Z,23.75
2018-07-12T07:22:50.119Z,23.7
2018-07-12T07:23:30.638Z,23.72
2018-07-12T07:24:11.163Z,23.79
2018-07-12T07:24:51.683Z,23.83
2018-07-12T07:25:32.193Z,23.72
2018-07-12T07:26:12.732Z,23.76
2018-07-12T07:26:53.245Z,23.9
2018-07-12T07:27:33.771Z,23.73
2018-07-12T07:28:14.293Z,23.72
2018-07-12T07:28:54.816Z,23.6
2018-07-12T07:29:35.335Z,23.69
2018-07-12T07:30:15.856Z,23.85
2018-07-12T07:30:56.407Z,23.72
2018-07-12T07:31:36.951Z,23.54
2018-07-12T07:32:17.431Z,23.61
2018-07-12T07:32:57.951Z,23.42
2018-07-12T07:33:38.438Z,23.57
2018-07-12T07:34:18.935Z,23.53
2018-07-12T07:34:59.436Z,23.43
2018-07-12T07:35:39.969Z,23.51
2018-07-12T07:36:20.464Z,23.5
2018-07-12T07:37:00.959Z,23.55
2018-07-12T07:37:41.448Z,23.54
2018-07-12T07:38:21.937Z,23.55
2018-07-12T07:39:02.433Z,23.6
2018-07-12T07:39:42.951Z,23.73
2018-07-12T07:40:23.473Z,23.72
2018-07-12T07:41:04.002Z,23.7
2018-07-12T07:41:44.528Z,23.93
2018-07-12T07:42:25.057Z,23.91
2018-07-12T07:43:05.689Z,24.02
2018-07-12T07:43:46.112Z,24.05
2018-07-12T07:44:26.635Z,24.1
2018-07-12T07:45:07.169Z,24.15
2018-07-12T07:45:47.757Z,24.13
2018-07-12T07:46:28.292Z,24.13
2018-07-12T07:47:08.820Z,24.2
2018-07-12T07:47:49.356Z,24.15
2018-07-12T07:48:29.872Z,24.24
2018-07-12T07:49:10.390Z,24.22
2018-07-12T07:49:50.866Z,24.21
2018-07-12T07:50:31.379Z,24.24
2018-07-12T07:51:11.871Z,24.27
2018-07-12T07:51:52.368Z,24.18
2018-07-12T07:52:32.897Z,24.09
2018-07-12T07:53:13.358Z,24.13
2018-07-12T07:53:53.888Z,24.18
2018-07-12T07:54:34.380Z,24.2
2018-07-12T07:55:14.907Z,24.28
2018-07-12T07:55:55.445Z,24.24
2018-07-12T07:56:35.944Z,24.31
2018-07-12T07:57:16.425Z,24.28
2018-07-12T07:57:56.929Z,24.22
2018-07-12T07:58:37.470Z,24.28
2018-07-12T07:59:17.946Z,24.22
2018-07-12T07:59:58.507Z,24.2
2018-07-12T08:00:38.974Z,24.24
2018-07-12T08:01:19.509Z,24.22
2018-07-12T08:01:59.991Z,24.31
2018-07-12T08:02:40.461Z,24.32
2018-07-12T08:03:20.992Z,24.3
2018-07-12T08:04:01.477Z,24.16
2018-07-12T08:04:41.992Z,24.09
2018-07-12T08:05:22.473Z,24.09
2018-07-12T08:06:03.010Z,24.18
2018-07-12T08:06:43.473Z,24.25
2018-07-12T08:07:24.028Z,24.27
2018-07-12T08:08:04.469Z,24.28
2018-07-12T08:08:45.005Z,24.12
2018-07-12T08:09:25.492Z,24.24
2018-07-12T08:10:05.983Z,24.28
2018-07-12T08:10:46.508Z,24.3
2018-07-12T08:11:26.986Z,24.22
2018-07-12T08:12:07.519Z,24.25
2018-07-12T08:12:48.040Z,24.27
2018-07-12T08:13:28.526Z,24.31
2018-07-12T08:14:09.038Z,24.34
2018-07-12T08:14:49.588Z,24.34
2018-07-12T08:15:30.104Z,24.34
2018-07-12T08:16:10.684Z,24.37
2018-07-12T08:16:51.136Z,24.34
2018-07-12T08:17:31.654Z,24.3
2018-07-12T08:18:12.139Z,24.22
2018-07-12T08:18:52.668Z,24.31
2018-07-12T08:19:33.131Z,24.35
2018-07-12T08:20:13.658Z,24.31
2018-07-12T08:20:54.197Z,24.3
2018-07-12T08:21:34.722Z,24.24
2018-07-12T08:22:15.277Z,24.28
2018-07-12T08:22:55.812Z,24.24
2018-07-12T08:23:36.387Z,24.35
2018-07-12T08:24:16.860Z,24.4
2018-07-12T08:24:57.391Z,24.49
2018-07-12T08:25:37.901Z,24.47
2018-07-12T08:26:18.423Z,24.5
2018-07-12T08:26:58.987Z,24.52
2018-07-12T08:27:39.516Z,24.46
2018-07-12T08:28:19.979Z,24.57
2018-07-12T08:29:00.485Z,24.45
2018-07-12T08:29:40.975Z,24.31
2018-07-12T08:30:21.459Z,24.32
2018-07-12T08:31:01.966Z,24.34
2018-07-12T08:31:42.448Z,24.43
2018-07-12T08:32:22.967Z,24.47
2018-07-12T08:33:03.450Z,24.57
2018-07-12T08:33:43.926Z,24.55
2018-07-12T08:34:24.450Z,24.55
2018-07-12T08:35:04.927Z,24.52
2018-07-12T08:35:45.440Z,24.52
2018-07-12T08:36:25.889Z,24.6
2018-07-12T08:37:06.471Z,24.58
2018-07-12T08:37:46.890Z,24.68
2018-07-12T08:38:27.366Z,24.65
2018-07-12T08:39:07.866Z,24.55
2018-07-12T08:39:48.410Z,24.69
2018-07-12T08:40:28.932Z,24.69
2018-07-12T08:41:09.458Z,24.69
2018-07-12T08:41:49.958Z,24.64
2018-07-12T08:42:30.514Z,24.69
2018-07-12T08:43:10.939Z,24.68
2018-07-12T08:43:51.436Z,24.65
2018-07-12T08:44:31.931Z,24.77
2018-07-12T08:45:12.440Z,24.68
2018-07-12T08:45:52.933Z,24.61
2018-07-12T08:46:33.442Z,24.5